sensor_id;sensor_type;location;lat;lon;timestamp;temperature;humidity
52656;SHT85;35474;51.032;6.998;2023-05-29T00:00:35;16.45;65.43
52656;SHT85;35474;51.032;6.998;2023-05-29T00:03:01;16.44;65.48
52656;SHT85;35474;51.032;6.998;2023-05-29T00:05:30;16.45;65.41
52656;SHT85;35474;51.032;6.998;2023-05-29T00:07:57;16.34;65.60
52656;SHT85;35474;51.032;6.998;2023-05-29T00:10:23;16.32;65.72
52656;SHT85;35474;51.032;6.998;2023-05-29T00:12:50;16.28;65.83
52656;SHT85;35474;51.032;6.998;2023-05-29T00:15:17;16.44;65.55
52656;SHT85;35474;51.032;6.998;2023-05-29T00:17:43;16.37;65.44
52656;SHT85;35474;51.032;6.998;2023-05-29T00:20:10;16.47;65.15
52656;SHT85;35474;51.032;6.998;2023-05-29T00:22:40;16.40;65.28
52656;SHT85;35474;51.032;6.998;2023-05-29T00:25:08;16.31;65.59
52656;SHT85;35474;51.032;6.998;2023-05-29T00:27:35;16.17;65.88
52656;SHT85;35474;51.032;6.998;2023-05-29T00:30:05;16.04;66.24
52656;SHT85;35474;51.032;6.998;2023-05-29T00:32:32;16.17;66.04
52656;SHT85;35474;51.032;6.998;2023-05-29T00:34:59;16.01;66.34
52656;SHT85;35474;51.032;6.998;2023-05-29T00:37:26;15.94;66.61
52656;SHT85;35474;51.032;6.998;2023-05-29T00:39:52;15.97;66.34
52656;SHT85;35474;51.032;6.998;2023-05-29T00:42:19;15.93;66.40
52656;SHT85;35474;51.032;6.998;2023-05-29T00:44:46;15.91;66.69
52656;SHT85;35474;51.032;6.998;2023-05-29T00:47:12;15.90;66.32
52656;SHT85;35474;51.032;6.998;2023-05-29T00:49:39;16.09;66.19
52656;SHT85;35474;51.032;6.998;2023-05-29T00:52:06;16.00;66.23
52656;SHT85;35474;51.032;6.998;2023-05-29T00:54:34;16.00;66.09
52656;SHT85;35474;51.032;6.998;2023-05-29T00:57:01;15.89;66.23
52656;SHT85;35474;51.032;6.998;2023-05-29T00:59:30;15.83;66.46
52656;SHT85;35474;51.032;6.998;2023-05-29T01:01:59;15.86;66.42
52656;SHT85;35474;51.032;6.998;2023-05-29T01:04:28;15.79;66.58
52656;SHT85;35474;51.032;6.998;2023-05-29T01:06:55;15.70;66.59
52656;SHT85;35474;51.032;6.998;2023-05-29T01:09:23;15.74;66.52
52656;SHT85;35474;51.032;6.998;2023-05-29T01:20:34;15.45;67.42
52656;SHT85;35474;51.032;6.998;2023-05-29T01:28:56;15.27;67.48
52656;SHT85;35474;51.032;6.998;2023-05-29T01:31:26;15.30;67.83
52656;SHT85;35474;51.032;6.998;2023-05-29T01:33:55;15.15;67.90
52656;SHT85;35474;51.032;6.998;2023-05-29T01:36:23;15.41;67.39
52656;SHT85;35474;51.032;6.998;2023-05-29T01:38:51;15.41;66.94
52656;SHT85;35474;51.032;6.998;2023-05-29T01:41:19;15.38;66.72
52656;SHT85;35474;51.032;6.998;2023-05-29T01:43:47;15.31;66.55
52656;SHT85;35474;51.032;6.998;2023-05-29T01:46:16;15.30;66.31
52656;SHT85;35474;51.032;6.998;2023-05-29T01:48:44;15.28;66.03
52656;SHT85;35474;51.032;6.998;2023-05-29T01:51:11;15.27;65.66
52656;SHT85;35474;51.032;6.998;2023-05-29T01:53:39;15.18;65.91
52656;SHT85;35474;51.032;6.998;2023-05-29T01:56:07;15.17;65.60
52656;SHT85;35474;51.032;6.998;2023-05-29T01:58:34;15.00;65.83
52656;SHT85;35474;51.032;6.998;2023-05-29T02:01:03;14.94;66.10
52656;SHT85;35474;51.032;6.998;2023-05-29T02:03:33;14.85;66.20
52656;SHT85;35474;51.032;6.998;2023-05-29T02:06:01;14.94;66.20
52656;SHT85;35474;51.032;6.998;2023-05-29T02:08:27;14.88;66.23
52656;SHT85;35474;51.032;6.998;2023-05-29T02:10:54;14.90;66.16
52656;SHT85;35474;51.032;6.998;2023-05-29T02:13:21;14.85;66.63
52656;SHT85;35474;51.032;6.998;2023-05-29T02:15:48;14.72;66.82
52656;SHT85;35474;51.032;6.998;2023-05-29T02:18:15;14.67;66.94
52656;SHT85;35474;51.032;6.998;2023-05-29T02:20:43;14.57;67.20
52656;SHT85;35474;51.032;6.998;2023-05-29T02:23:10;14.56;67.26
52656;SHT85;35474;51.032;6.998;2023-05-29T02:25:37;14.55;67.32
52656;SHT85;35474;51.032;6.998;2023-05-29T02:28:04;14.35;67.85
52656;SHT85;35474;51.032;6.998;2023-05-29T02:30:31;14.33;68.41
52656;SHT85;35474;51.032;6.998;2023-05-29T02:32:58;14.35;67.97
52656;SHT85;35474;51.032;6.998;2023-05-29T02:35:24;14.32;67.84
52656;SHT85;35474;51.032;6.998;2023-05-29T02:37:52;14.26;68.22
52656;SHT85;35474;51.032;6.998;2023-05-29T02:40:19;14.19;68.44
52656;SHT85;35474;51.032;6.998;2023-05-29T02:42:46;14.12;68.75
52656;SHT85;35474;51.032;6.998;2023-05-29T02:45:13;14.01;69.23
52656;SHT85;35474;51.032;6.998;2023-05-29T02:47:40;13.98;69.42
52656;SHT85;35474;51.032;6.998;2023-05-29T02:50:07;13.81;69.73
52656;SHT85;35474;51.032;6.998;2023-05-29T02:52:34;13.84;69.66
52656;SHT85;35474;51.032;6.998;2023-05-29T02:55:03;13.81;69.91
52656;SHT85;35474;51.032;6.998;2023-05-29T02:57:32;13.85;69.82
52656;SHT85;35474;51.032;6.998;2023-05-29T02:59:59;13.84;69.86
52656;SHT85;35474;51.032;6.998;2023-05-29T03:02:27;13.67;70.43
52656;SHT85;35474;51.032;6.998;2023-05-29T03:04:54;13.75;70.43
52656;SHT85;35474;51.032;6.998;2023-05-29T03:07:20;13.77;70.15
52656;SHT85;35474;51.032;6.998;2023-05-29T03:09:47;13.68;70.51
52656;SHT85;35474;51.032;6.998;2023-05-29T03:12:14;13.67;70.51
52656;SHT85;35474;51.032;6.998;2023-05-29T03:14:40;13.63;70.76
52656;SHT85;35474;51.032;6.998;2023-05-29T03:17:07;13.60;71.08
52656;SHT85;35474;51.032;6.998;2023-05-29T03:19:34;13.44;71.22
52656;SHT85;35474;51.032;6.998;2023-05-29T03:22:00;13.29;72.09
52656;SHT85;35474;51.032;6.998;2023-05-29T03:24:27;13.20;72.64
52656;SHT85;35474;51.032;6.998;2023-05-29T03:26:53;13.20;72.57
52656;SHT85;35474;51.032;6.998;2023-05-29T03:29:20;13.15;72.79
52656;SHT85;35474;51.032;6.998;2023-05-29T03:31:48;13.27;72.37
52656;SHT85;35474;51.032;6.998;2023-05-29T03:34:14;13.22;72.59
52656;SHT85;35474;51.032;6.998;2023-05-29T03:36:41;13.19;72.33
52656;SHT85;35474;51.032;6.998;2023-05-29T03:39:08;13.20;72.49
52656;SHT85;35474;51.032;6.998;2023-05-29T03:41:35;13.11;72.70
52656;SHT85;35474;51.032;6.998;2023-05-29T03:44:02;13.19;72.85
52656;SHT85;35474;51.032;6.998;2023-05-29T03:46:29;13.18;72.36
52656;SHT85;35474;51.032;6.998;2023-05-29T03:48:57;13.11;72.57
52656;SHT85;35474;51.032;6.998;2023-05-29T03:51:24;12.96;72.83
52656;SHT85;35474;51.032;6.998;2023-05-29T03:53:51;12.99;72.86
52656;SHT85;35474;51.032;6.998;2023-05-29T03:56:17;12.84;73.39
52656;SHT85;35474;51.032;6.998;2023-05-29T03:58:44;12.72;73.75
52656;SHT85;35474;51.032;6.998;2023-05-29T04:01:11;12.81;73.57
52656;SHT85;35474;51.032;6.998;2023-05-29T04:03:37;12.79;73.33
52656;SHT85;35474;51.032;6.998;2023-05-29T04:06:05;12.91;73.33
52656;SHT85;35474;51.032;6.998;2023-05-29T04:08:31;12.86;73.33
52656;SHT85;35474;51.032;6.998;2023-05-29T04:10:58;12.91;73.36
52656;SHT85;35474;51.032;6.998;2023-05-29T04:13:24;12.69;73.72
52656;SHT85;35474;51.032;6.998;2023-05-29T04:15:51;12.79;73.68
52656;SHT85;35474;51.032;6.998;2023-05-29T04:18:19;12.84;73.62
52656;SHT85;35474;51.032;6.998;2023-05-29T04:20:47;12.72;74.08
52656;SHT85;35474;51.032;6.998;2023-05-29T04:23:14;12.75;74.06
52656;SHT85;35474;51.032;6.998;2023-05-29T04:25:41;12.74;74.09
52656;SHT85;35474;51.032;6.998;2023-05-29T04:28:07;12.85;73.81
52656;SHT85;35474;51.032;6.998;2023-05-29T04:30:37;12.98;73.24
52656;SHT85;35474;51.032;6.998;2023-05-29T04:33:05;12.95;73.35
52656;SHT85;35474;51.032;6.998;2023-05-29T04:35:32;12.96;73.66
52656;SHT85;35474;51.032;6.998;2023-05-29T04:37:59;12.98;73.64
52656;SHT85;35474;51.032;6.998;2023-05-29T04:40:25;13.11;73.21
52656;SHT85;35474;51.032;6.998;2023-05-29T04:42:52;13.22;72.85
52656;SHT85;35474;51.032;6.998;2023-05-29T04:45:19;13.22;73.14
52656;SHT85;35474;51.032;6.998;2023-05-29T04:47:49;13.27;72.74
52656;SHT85;35474;51.032;6.998;2023-05-29T04:50:16;13.37;72.42
52656;SHT85;35474;51.032;6.998;2023-05-29T04:52:44;13.53;71.62
52656;SHT85;35474;51.032;6.998;2023-05-29T04:55:10;13.54;71.60
52656;SHT85;35474;51.032;6.998;2023-05-29T04:57:38;13.56;71.80
52656;SHT85;35474;51.032;6.998;2023-05-29T05:00:05;13.44;71.61
52656;SHT85;35474;51.032;6.998;2023-05-29T05:02:33;13.37;71.96
52656;SHT85;35474;51.032;6.998;2023-05-29T05:05:00;13.42;71.97
52656;SHT85;35474;51.032;6.998;2023-05-29T05:07:26;13.37;72.13
52656;SHT85;35474;51.032;6.998;2023-05-29T05:09:53;13.40;72.29
52656;SHT85;35474;51.032;6.998;2023-05-29T05:12:19;13.44;72.22
52656;SHT85;35474;51.032;6.998;2023-05-29T05:14:46;13.40;72.19
52656;SHT85;35474;51.032;6.998;2023-05-29T05:17:13;13.44;72.41
52656;SHT85;35474;51.032;6.998;2023-05-29T05:19:39;13.43;72.54
52656;SHT85;35474;51.032;6.998;2023-05-29T05:22:06;13.61;72.33
52656;SHT85;35474;51.032;6.998;2023-05-29T05:24:33;13.60;71.90
52656;SHT85;35474;51.032;6.998;2023-05-29T05:27:00;13.65;71.59
52656;SHT85;35474;51.032;6.998;2023-05-29T05:29:27;13.65;71.50
52656;SHT85;35474;51.032;6.998;2023-05-29T05:31:54;13.73;71.47
52656;SHT85;35474;51.032;6.998;2023-05-29T05:34:21;13.81;70.90
52656;SHT85;35474;51.032;6.998;2023-05-29T05:36:48;13.85;70.73
52656;SHT85;35474;51.032;6.998;2023-05-29T05:39:15;13.90;70.60
52656;SHT85;35474;51.032;6.998;2023-05-29T05:41:42;13.84;70.49
52656;SHT85;35474;51.032;6.998;2023-05-29T05:44:09;13.83;70.56
52656;SHT85;35474;51.032;6.998;2023-05-29T05:46:36;13.84;70.58
52656;SHT85;35474;51.032;6.998;2023-05-29T05:49:02;13.94;70.01
52656;SHT85;35474;51.032;6.998;2023-05-29T05:51:29;13.97;69.62
52656;SHT85;35474;51.032;6.998;2023-05-29T05:53:57;13.90;69.57
52656;SHT85;35474;51.032;6.998;2023-05-29T05:56:23;13.98;69.20
52656;SHT85;35474;51.032;6.998;2023-05-29T05:58:50;13.98;69.44
52656;SHT85;35474;51.032;6.998;2023-05-29T06:01:16;14.11;69.29
52656;SHT85;35474;51.032;6.998;2023-05-29T06:03:44;14.18;68.65
52656;SHT85;35474;51.032;6.998;2023-05-29T06:06:11;14.23;68.58
52656;SHT85;35474;51.032;6.998;2023-05-29T06:08:38;14.29;68.13
52656;SHT85;35474;51.032;6.998;2023-05-29T06:11:06;14.33;68.10
52656;SHT85;35474;51.032;6.998;2023-05-29T06:13:33;14.44;67.67
52656;SHT85;35474;51.032;6.998;2023-05-29T06:16:00;14.35;68.04
52656;SHT85;35474;51.032;6.998;2023-05-29T06:18:27;14.40;67.69
52656;SHT85;35474;51.032;6.998;2023-05-29T06:20:53;14.55;67.55
52656;SHT85;35474;51.032;6.998;2023-05-29T06:23:20;14.53;67.29
52656;SHT85;35474;51.032;6.998;2023-05-29T06:25:47;14.60;67.37
52656;SHT85;35474;51.032;6.998;2023-05-29T06:28:14;14.73;67.15
52656;SHT85;35474;51.032;6.998;2023-05-29T06:32:34;14.74;66.96
52656;SHT85;35474;51.032;6.998;2023-05-29T06:35:01;14.73;66.92
52656;SHT85;35474;51.032;6.998;2023-05-29T06:37:27;14.79;67.13
52656;SHT85;35474;51.032;6.998;2023-05-29T06:39:54;14.97;66.60
52656;SHT85;35474;51.032;6.998;2023-05-29T06:42:21;14.97;66.73
52656;SHT85;35474;51.032;6.998;2023-05-29T06:44:48;14.97;66.50
52656;SHT85;35474;51.032;6.998;2023-05-29T06:47:15;15.11;66.17
52656;SHT85;35474;51.032;6.998;2023-05-29T06:49:41;15.34;65.64
52656;SHT85;35474;51.032;6.998;2023-05-29T06:52:09;15.32;65.67
52656;SHT85;35474;51.032;6.998;2023-05-29T06:54:36;15.35;65.45
52656;SHT85;35474;51.032;6.998;2023-05-29T06:57:02;15.42;65.44
52656;SHT85;35474;51.032;6.998;2023-05-29T06:59:36;15.63;65.16
52656;SHT85;35474;51.032;6.998;2023-05-29T07:02:02;15.70;64.79
52656;SHT85;35474;51.032;6.998;2023-05-29T07:04:29;15.74;64.53
52656;SHT85;35474;51.032;6.998;2023-05-29T07:06:55;15.80;64.52
52656;SHT85;35474;51.032;6.998;2023-05-29T07:09:22;16.01;64.30
52656;SHT85;35474;51.032;6.998;2023-05-29T07:11:48;16.06;63.68
52656;SHT85;35474;51.032;6.998;2023-05-29T07:14:15;16.09;63.37
52656;SHT85;35474;51.032;6.998;2023-05-29T07:16:42;15.89;63.80
52656;SHT85;35474;51.032;6.998;2023-05-29T07:19:09;15.93;63.40
52656;SHT85;35474;51.032;6.998;2023-05-29T07:21:46;16.01;63.94
52656;SHT85;35474;51.032;6.998;2023-05-29T07:24:13;16.13;63.63
52656;SHT85;35474;51.032;6.998;2023-05-29T07:26:40;16.22;63.12
52656;SHT85;35474;51.032;6.998;2023-05-29T07:29:06;16.32;62.64
52656;SHT85;35474;51.032;6.998;2023-05-29T07:31:33;16.27;62.95
52656;SHT85;35474;51.032;6.998;2023-05-29T07:34:00;16.37;63.11
52656;SHT85;35474;51.032;6.998;2023-05-29T07:36:29;16.44;62.59
52656;SHT85;35474;51.032;6.998;2023-05-29T07:38:59;16.55;62.71
52656;SHT85;35474;51.032;6.998;2023-05-29T07:41:26;16.73;62.70
52656;SHT85;35474;51.032;6.998;2023-05-29T07:43:55;16.96;61.72
52656;SHT85;35474;51.032;6.998;2023-05-29T07:46:22;16.76;61.45
52656;SHT85;35474;51.032;6.998;2023-05-29T07:48:49;16.92;61.72
52656;SHT85;35474;51.032;6.998;2023-05-29T07:51:15;16.89;61.38
52656;SHT85;35474;51.032;6.998;2023-05-29T07:53:46;16.85;61.18
52656;SHT85;35474;51.032;6.998;2023-05-29T07:56:13;16.95;60.97
52656;SHT85;35474;51.032;6.998;2023-05-29T07:58:40;17.03;60.79
52656;SHT85;35474;51.032;6.998;2023-05-29T08:01:07;17.04;61.22
52656;SHT85;35474;51.032;6.998;2023-05-29T08:03:34;17.09;61.10
52656;SHT85;35474;51.032;6.998;2023-05-29T08:06:01;17.24;60.78
52656;SHT85;35474;51.032;6.998;2023-05-29T08:08:28;17.24;60.54
52656;SHT85;35474;51.032;6.998;2023-05-29T08:10:54;17.67;60.45
52656;SHT85;35474;51.032;6.998;2023-05-29T08:13:22;17.94;59.01
52656;SHT85;35474;51.032;6.998;2023-05-29T08:15:48;19.28;55.67
52656;SHT85;35474;51.032;6.998;2023-05-29T08:18:15;19.91;54.30
52656;SHT85;35474;51.032;6.998;2023-05-29T08:20:42;20.99;51.06
52656;SHT85;35474;51.032;6.998;2023-05-29T08:23:09;21.93;48.30
52656;SHT85;35474;51.032;6.998;2023-05-29T08:25:36;22.03;48.16
52656;SHT85;35474;51.032;6.998;2023-05-29T08:28:02;21.45;48.76
52656;SHT85;35474;51.032;6.998;2023-05-29T08:30:29;21.27;48.83
52656;SHT85;35474;51.032;6.998;2023-05-29T08:32:56;21.60;48.98
52656;SHT85;35474;51.032;6.998;2023-05-29T08:35:22;21.57;49.35
52656;SHT85;35474;51.032;6.998;2023-05-29T08:37:49;22.15;47.85
52656;SHT85;35474;51.032;6.998;2023-05-29T08:40:16;22.16;47.03
52656;SHT85;35474;51.032;6.998;2023-05-29T08:42:45;21.79;48.49
52656;SHT85;35474;51.032;6.998;2023-05-29T08:45:14;21.28;49.09
52656;SHT85;35474;51.032;6.998;2023-05-29T08:47:41;21.00;49.72
52656;SHT85;35474;51.032;6.998;2023-05-29T08:50:11;22.09;48.31
52656;SHT85;35474;51.032;6.998;2023-05-29T08:52:41;22.47;47.75
52656;SHT85;35474;51.032;6.998;2023-05-29T08:55:08;21.32;48.87
52656;SHT85;35474;51.032;6.998;2023-05-29T08:57:34;21.07;49.64
52656;SHT85;35474;51.032;6.998;2023-05-29T09:00:04;21.60;49.17
52656;SHT85;35474;51.032;6.998;2023-05-29T09:02:41;23.04;46.63
52656;SHT85;35474;51.032;6.998;2023-05-29T09:05:12;22.99;46.44
52656;SHT85;35474;51.032;6.998;2023-05-29T09:07:39;22.64;46.72
52656;SHT85;35474;51.032;6.998;2023-05-29T09:10:08;23.07;46.04
52656;SHT85;35474;51.032;6.998;2023-05-29T09:12:35;23.62;45.05
52656;SHT85;35474;51.032;6.998;2023-05-29T09:15:02;23.11;45.74
52656;SHT85;35474;51.032;6.998;2023-05-29T09:17:33;24.21;44.18
52656;SHT85;35474;51.032;6.998;2023-05-29T09:20:00;23.83;43.96
52656;SHT85;35474;51.032;6.998;2023-05-29T09:22:26;22.47;47.14
52656;SHT85;35474;51.032;6.998;2023-05-29T09:24:53;23.59;45.02
52656;SHT85;35474;51.032;6.998;2023-05-29T09:27:20;24.67;43.28
52656;SHT85;35474;51.032;6.998;2023-05-29T09:29:48;23.82;44.43
52656;SHT85;35474;51.032;6.998;2023-05-29T09:32:15;24.64;43.05
52656;SHT85;35474;51.032;6.998;2023-05-29T09:34:44;24.57;42.65
52656;SHT85;35474;51.032;6.998;2023-05-29T09:37:11;23.52;44.89
52656;SHT85;35474;51.032;6.998;2023-05-29T09:42:11;24.58;42.49
52656;SHT85;35474;51.032;6.998;2023-05-29T09:44:39;25.12;41.43
52656;SHT85;35474;51.032;6.998;2023-05-29T09:47:07;25.80;41.00
52656;SHT85;35474;51.032;6.998;2023-05-29T09:49:34;25.47;40.94
52656;SHT85;35474;51.032;6.998;2023-05-29T09:52:01;24.17;43.93
52656;SHT85;35474;51.032;6.998;2023-05-29T09:54:27;25.37;41.86
52656;SHT85;35474;51.032;6.998;2023-05-29T09:56:57;24.93;41.96
52656;SHT85;35474;51.032;6.998;2023-05-29T09:59:24;24.23;43.40
52656;SHT85;35474;51.032;6.998;2023-05-29T10:02:09;25.09;42.18
52656;SHT85;35474;51.032;6.998;2023-05-29T10:04:38;25.08;42.54
52656;SHT85;35474;51.032;6.998;2023-05-29T10:07:10;24.75;43.27
52656;SHT85;35474;51.032;6.998;2023-05-29T10:09:44;23.47;44.71
52656;SHT85;35474;51.032;6.998;2023-05-29T10:12:14;23.53;45.06
52656;SHT85;35474;51.032;6.998;2023-05-29T10:14:47;24.99;42.49
52656;SHT85;35474;51.032;6.998;2023-05-29T10:17:16;25.60;41.37
52656;SHT85;35474;51.032;6.998;2023-05-29T10:19:48;25.15;41.98
52656;SHT85;35474;51.032;6.998;2023-05-29T10:22:18;24.93;42.56
52656;SHT85;35474;51.032;6.998;2023-05-29T10:24:48;23.25;45.06
52656;SHT85;35474;51.032;6.998;2023-05-29T10:27:16;22.78;46.15
52656;SHT85;35474;51.032;6.998;2023-05-29T10:29:59;23.90;44.75
52656;SHT85;35474;51.032;6.998;2023-05-29T10:32:36;24.09;43.99
52656;SHT85;35474;51.032;6.998;2023-05-29T10:35:17;24.18;43.82
52656;SHT85;35474;51.032;6.998;2023-05-29T10:37:54;24.81;42.28
52656;SHT85;35474;51.032;6.998;2023-05-29T10:40:26;25.68;41.14
52656;SHT85;35474;51.032;6.998;2023-05-29T10:42:53;25.80;40.99
52656;SHT85;35474;51.032;6.998;2023-05-29T10:50:41;25.75;40.46
52656;SHT85;35474;51.032;6.998;2023-05-29T10:53:10;24.52;42.83
52656;SHT85;35474;51.032;6.998;2023-05-29T10:55:40;25.98;40.93
52656;SHT85;35474;51.032;6.998;2023-05-29T10:58:07;26.53;39.31
52656;SHT85;35474;51.032;6.998;2023-05-29T11:00:39;25.58;41.36
52656;SHT85;35474;51.032;6.998;2023-05-29T11:03:10;26.72;39.72
52656;SHT85;35474;51.032;6.998;2023-05-29T11:05:56;24.07;43.79
52656;SHT85;35474;51.032;6.998;2023-05-29T11:08:41;24.32;43.75
52656;SHT85;35474;51.032;6.998;2023-05-29T11:13:55;26.33;40.41
52656;SHT85;35474;51.032;6.998;2023-05-29T11:18:55;25.71;40.82
52656;SHT85;35474;51.032;6.998;2023-05-29T11:21:59;24.92;42.93
52656;SHT85;35474;51.032;6.998;2023-05-29T11:24:23;25.54;41.42
52656;SHT85;35474;51.032;6.998;2023-05-29T11:26:52;26.59;39.74
52656;SHT85;35474;51.032;6.998;2023-05-29T11:29:23;27.20;38.87
52656;SHT85;35474;51.032;6.998;2023-05-29T11:32:02;27.24;38.82
52656;SHT85;35474;51.032;6.998;2023-05-29T11:34:35;26.22;40.08
52656;SHT85;35474;51.032;6.998;2023-05-29T11:37:05;27.75;37.82
52656;SHT85;35474;51.032;6.998;2023-05-29T11:39:35;27.42;38.25
52656;SHT85;35474;51.032;6.998;2023-05-29T11:42:03;27.30;37.69
52656;SHT85;35474;51.032;6.998;2023-05-29T11:44:32;26.87;38.66
52656;SHT85;35474;51.032;6.998;2023-05-29T11:47:05;27.28;37.96
52656;SHT85;35474;51.032;6.998;2023-05-29T11:49:34;27.81;37.44
52656;SHT85;35474;51.032;6.998;2023-05-29T11:52:12;26.82;38.64
52656;SHT85;35474;51.032;6.998;2023-05-29T11:54:43;27.89;37.55
52656;SHT85;35474;51.032;6.998;2023-05-29T11:57:21;28.33;36.44
52656;SHT85;35474;51.032;6.998;2023-05-29T11:59:51;27.88;36.77
52656;SHT85;35474;51.032;6.998;2023-05-29T12:02:25;27.86;37.17
52656;SHT85;35474;51.032;6.998;2023-05-29T12:05:00;27.07;37.37
52656;SHT85;35474;51.032;6.998;2023-05-29T12:07:34;27.52;37.42
52656;SHT85;35474;51.032;6.998;2023-05-29T12:10:11;27.99;36.35
52656;SHT85;35474;51.032;6.998;2023-05-29T12:12:39;27.38;37.16
52656;SHT85;35474;51.032;6.998;2023-05-29T12:15:06;27.86;36.78
52656;SHT85;35474;51.032;6.998;2023-05-29T12:17:34;27.28;37.69
52656;SHT85;35474;51.032;6.998;2023-05-29T12:20:03;27.55;36.90
52656;SHT85;35474;51.032;6.998;2023-05-29T12:22:35;28.37;35.41
52656;SHT85;35474;51.032;6.998;2023-05-29T12:25:06;28.20;35.32
52656;SHT85;35474;51.032;6.998;2023-05-29T12:27:33;28.04;35.72
52656;SHT85;35474;51.032;6.998;2023-05-29T12:30:03;26.70;37.42
52656;SHT85;35474;51.032;6.998;2023-05-29T12:32:36;27.01;37.45
52656;SHT85;35474;51.032;6.998;2023-05-29T12:37:44;26.67;37.61
52656;SHT85;35474;51.032;6.998;2023-05-29T12:40:21;27.46;36.87
52656;SHT85;35474;51.032;6.998;2023-05-29T12:42:56;27.81;36.87
52656;SHT85;35474;51.032;6.998;2023-05-29T12:45:25;27.41;37.37
52656;SHT85;35474;51.032;6.998;2023-05-29T12:47:54;28.54;35.38
52656;SHT85;35474;51.032;6.998;2023-05-29T12:51:00;27.94;36.49
52656;SHT85;35474;51.032;6.998;2023-05-29T12:53:20;27.38;36.59
52656;SHT85;35474;51.032;6.998;2023-05-29T12:55:47;26.74;37.86
52656;SHT85;35474;51.032;6.998;2023-05-29T12:58:14;27.30;36.87
52656;SHT85;35474;51.032;6.998;2023-05-29T13:00:42;26.90;37.56
52656;SHT85;35474;51.032;6.998;2023-05-29T13:03:10;26.77;37.71
52656;SHT85;35474;51.032;6.998;2023-05-29T13:05:37;26.12;38.45
52656;SHT85;35474;51.032;6.998;2023-05-29T13:08:05;26.59;37.94
52656;SHT85;35474;51.032;6.998;2023-05-29T13:10:34;26.94;37.07
52656;SHT85;35474;51.032;6.998;2023-05-29T13:13:01;27.31;36.47
52656;SHT85;35474;51.032;6.998;2023-05-29T13:15:28;27.72;35.94
52656;SHT85;35474;51.032;6.998;2023-05-29T13:17:54;27.75;35.69
52656;SHT85;35474;51.032;6.998;2023-05-29T13:20:21;27.35;36.26
52656;SHT85;35474;51.032;6.998;2023-05-29T13:22:48;27.88;35.76
52656;SHT85;35474;51.032;6.998;2023-05-29T13:25:16;27.37;36.58
52656;SHT85;35474;51.032;6.998;2023-05-29T13:27:46;27.48;36.80
52656;SHT85;35474;51.032;6.998;2023-05-29T13:30:14;28.09;35.77
52656;SHT85;35474;51.032;6.998;2023-05-29T13:32:42;28.13;35.65
52656;SHT85;35474;51.032;6.998;2023-05-29T13:35:09;27.34;36.51
52656;SHT85;35474;51.032;6.998;2023-05-29T13:37:36;27.51;36.17
52656;SHT85;35474;51.032;6.998;2023-05-29T13:40:04;27.99;35.91
52656;SHT85;35474;51.032;6.998;2023-05-29T13:42:35;27.61;36.67
52656;SHT85;35474;51.032;6.998;2023-05-29T13:45:04;27.66;35.92
52656;SHT85;35474;51.032;6.998;2023-05-29T13:47:35;28.26;35.12
52656;SHT85;35474;51.032;6.998;2023-05-29T13:50:02;27.76;35.90
52656;SHT85;35474;51.032;6.998;2023-05-29T13:52:30;27.62;36.12
52656;SHT85;35474;51.032;6.998;2023-05-29T13:54:56;27.42;36.59
52656;SHT85;35474;51.032;6.998;2023-05-29T13:57:25;27.75;36.62
52656;SHT85;35474;51.032;6.998;2023-05-29T13:59:52;27.10;37.09
52656;SHT85;35474;51.032;6.998;2023-05-29T14:02:19;26.26;37.96
52656;SHT85;35474;51.032;6.998;2023-05-29T14:04:45;27.01;37.33
52656;SHT85;35474;51.032;6.998;2023-05-29T14:07:12;27.00;36.66
52656;SHT85;35474;51.032;6.998;2023-05-29T14:09:39;27.45;35.97
52656;SHT85;35474;51.032;6.998;2023-05-29T14:12:06;28.04;35.29
52656;SHT85;35474;51.032;6.998;2023-05-29T14:14:33;28.03;35.53
52656;SHT85;35474;51.032;6.998;2023-05-29T14:17:00;26.04;37.60
52656;SHT85;35474;51.032;6.998;2023-05-29T14:19:28;26.60;37.42
52656;SHT85;35474;51.032;6.998;2023-05-29T14:21:55;26.37;37.73
52656;SHT85;35474;51.032;6.998;2023-05-29T14:24:21;26.87;37.82
52656;SHT85;35474;51.032;6.998;2023-05-29T14:26:48;26.82;38.04
52656;SHT85;35474;51.032;6.998;2023-05-29T14:29:16;27.17;37.56
52656;SHT85;35474;51.032;6.998;2023-05-29T14:31:43;26.90;37.08
52656;SHT85;35474;51.032;6.998;2023-05-29T14:34:10;26.93;37.13
52656;SHT85;35474;51.032;6.998;2023-05-29T14:36:38;26.84;36.99
52656;SHT85;35474;51.032;6.998;2023-05-29T14:39:06;26.67;36.88
52656;SHT85;35474;51.032;6.998;2023-05-29T14:41:33;26.67;36.91
52656;SHT85;35474;51.032;6.998;2023-05-29T14:44:01;26.53;37.92
52656;SHT85;35474;51.032;6.998;2023-05-29T14:46:28;26.22;38.25
52656;SHT85;35474;51.032;6.998;2023-05-29T14:48:58;26.70;37.69
52656;SHT85;35474;51.032;6.998;2023-05-29T14:51:26;26.60;37.59
52656;SHT85;35474;51.032;6.998;2023-05-29T14:53:53;26.94;37.16
52656;SHT85;35474;51.032;6.998;2023-05-29T14:56:20;27.05;36.36
52656;SHT85;35474;51.032;6.998;2023-05-29T14:58:47;26.73;37.12
52656;SHT85;35474;51.032;6.998;2023-05-29T15:01:15;26.67;37.69
52656;SHT85;35474;51.032;6.998;2023-05-29T15:03:42;27.00;37.27
52656;SHT85;35474;51.032;6.998;2023-05-29T15:06:10;26.86;37.13
52656;SHT85;35474;51.032;6.998;2023-05-29T15:08:40;26.02;38.16
52656;SHT85;35474;51.032;6.998;2023-05-29T15:11:10;26.40;37.85
52656;SHT85;35474;51.032;6.998;2023-05-29T15:13:39;26.67;37.38
52656;SHT85;35474;51.032;6.998;2023-05-29T15:16:06;26.59;37.64
52656;SHT85;35474;51.032;6.998;2023-05-29T15:18:34;26.14;38.45
52656;SHT85;35474;51.032;6.998;2023-05-29T15:21:01;25.89;38.47
52656;SHT85;35474;51.032;6.998;2023-05-29T15:23:28;25.44;39.35
52656;SHT85;35474;51.032;6.998;2023-05-29T15:25:54;25.29;39.53
52656;SHT85;35474;51.032;6.998;2023-05-29T15:28:21;25.23;39.29
52656;SHT85;35474;51.032;6.998;2023-05-29T15:30:48;24.37;40.67
52656;SHT85;35474;51.032;6.998;2023-05-29T15:33:15;24.49;40.92
52656;SHT85;35474;51.032;6.998;2023-05-29T15:35:42;24.71;40.61
52656;SHT85;35474;51.032;6.998;2023-05-29T15:38:09;24.61;40.35
52656;SHT85;35474;51.032;6.998;2023-05-29T15:40:39;24.64;40.12
52656;SHT85;35474;51.032;6.998;2023-05-29T15:43:06;25.03;39.66
52656;SHT85;35474;51.032;6.998;2023-05-29T15:45:35;24.78;40.19
52656;SHT85;35474;51.032;6.998;2023-05-29T15:48:02;24.81;40.03
52656;SHT85;35474;51.032;6.998;2023-05-29T15:50:30;24.45;41.20
52656;SHT85;35474;51.032;6.998;2023-05-29T15:52:56;24.44;41.25
52656;SHT85;35474;51.032;6.998;2023-05-29T15:55:23;24.81;40.33
52656;SHT85;35474;51.032;6.998;2023-05-29T15:57:50;24.32;40.99
52656;SHT85;35474;51.032;6.998;2023-05-29T16:00:17;24.44;40.68
52656;SHT85;35474;51.032;6.998;2023-05-29T16:02:44;24.40;40.79
52656;SHT85;35474;51.032;6.998;2023-05-29T16:05:11;24.64;40.39
52656;SHT85;35474;51.032;6.998;2023-05-29T16:07:38;25.15;39.23